createdAt,value
2023-04-16T00:01:43.294Z,5.69
2023-04-16T00:04:12.111Z,5.78
2023-04-16T00:06:40.853Z,5.78
2023-04-16T00:09:09.528Z,5.75
2023-04-16T00:11:38.277Z,5.84
2023-04-16T00:14:07.008Z,5.75
2023-04-16T00:16:39.088Z,5.70
2023-04-16T00:19:10.113Z,5.60
2023-04-16T00:21:39.625Z,5.72
2023-04-16T00:24:11.561Z,5.68
2023-04-16T00:26:58.841Z,5.67
2023-04-16T00:29:29.162Z,5.67
2023-04-16T00:32:00.563Z,5.60
2023-04-16T00:34:29.243Z,5.53
2023-04-16T00:36:59.013Z,5.54
2023-04-16T00:39:27.685Z,5.51
2023-04-16T00:41:56.345Z,5.60
2023-04-16T00:44:24.962Z,5.47
2023-04-16T00:46:55.595Z,5.52
2023-04-16T00:49:26.353Z,5.51
2023-04-16T00:51:55.049Z,5.48
2023-04-16T00:54:26.472Z,5.60
2023-04-16T00:56:57.626Z,5.52
2023-04-16T00:59:30.020Z,5.47
2023-04-16T01:02:02.980Z,5.32
2023-04-16T01:04:43.089Z,5.30
2023-04-16T01:07:12.594Z,5.38
2023-04-16T01:09:43.924Z,5.32
2023-04-16T01:12:20.424Z,5.23
2023-04-16T01:14:51.685Z,5.19
2023-04-16T01:17:23.245Z,5.26
2023-04-16T01:19:55.308Z,5.17
2023-04-16T01:22:33.412Z,5.14
2023-04-16T01:25:03.299Z,5.20
2023-04-16T01:27:32.585Z,5.19
2023-04-16T01:30:01.156Z,5.05
2023-04-16T01:32:41.406Z,5.03
2023-04-16T01:35:10.275Z,5.07
2023-04-16T01:37:40.277Z,5.11
2023-04-16T01:40:10.228Z,4.99
2023-04-16T01:42:39.417Z,5.03
2023-04-16T01:45:09.637Z,4.94
2023-04-16T01:47:38.436Z,5.01
2023-04-16T01:50:08.720Z,5.00
2023-04-16T01:52:37.340Z,4.95
2023-04-16T01:55:08.989Z,4.97
2023-04-16T01:57:37.618Z,4.92
2023-04-16T02:00:08.565Z,5.04
2023-04-16T02:02:47.384Z,4.91
2023-04-16T02:05:22.249Z,4.82
2023-04-16T02:07:50.883Z,4.68
2023-04-16T02:10:20.909Z,4.79
2023-04-16T02:12:49.946Z,4.86
2023-04-16T02:15:18.805Z,4.79
2023-04-16T02:17:48.974Z,4.74
2023-04-16T02:20:18.234Z,4.73
2023-04-16T02:22:55.172Z,4.63
2023-04-16T02:25:27.272Z,4.63
2023-04-16T02:27:57.722Z,4.64
2023-04-16T02:30:41.124Z,4.64
2023-04-16T02:33:12.923Z,4.69
2023-04-16T02:35:49.589Z,4.77
2023-04-16T02:38:18.266Z,4.81
2023-04-16T02:40:48.269Z,4.78
2023-04-16T02:43:18.282Z,4.62
2023-04-16T02:45:47.110Z,4.79
2023-04-16T02:48:15.887Z,4.60
2023-04-16T02:50:44.437Z,4.57
2023-04-16T02:53:13.076Z,4.62
2023-04-16T02:55:41.669Z,4.73
2023-04-16T02:58:11.638Z,4.65
2023-04-16T03:00:40.271Z,4.75
2023-04-16T03:03:08.982Z,4.69
2023-04-16T03:05:39.686Z,4.72
2023-04-16T03:08:09.238Z,4.64
2023-04-16T03:10:38.007Z,4.69
2023-04-16T03:13:06.803Z,4.77
2023-04-16T03:15:36.894Z,4.85
2023-04-16T03:18:05.625Z,4.77
2023-04-16T03:20:34.776Z,4.79
2023-04-16T03:23:03.335Z,4.74
2023-04-16T03:25:31.975Z,4.75
2023-04-16T03:28:01.014Z,4.76
2023-04-16T03:30:29.698Z,4.76
2023-04-16T03:32:59.640Z,4.75
2023-04-16T03:35:28.534Z,4.83
2023-04-16T03:37:57.379Z,4.90
2023-04-16T03:40:26.584Z,4.91
2023-04-16T03:42:55.836Z,4.79
2023-04-16T03:45:25.058Z,4.89
2023-04-16T03:47:54.804Z,5.00
2023-04-16T03:50:27.542Z,5.06
2023-04-16T03:52:56.401Z,4.88
2023-04-16T03:55:25.622Z,5.00
2023-04-16T03:57:54.746Z,5.07
2023-04-16T04:00:23.696Z,5.18
2023-04-16T04:03:11.539Z,5.05
2023-04-16T04:06:01.000Z,5.17
2023-04-16T04:08:31.996Z,5.34
2023-04-16T04:11:00.572Z,5.35
2023-04-16T04:13:29.823Z,5.40
2023-04-16T04:15:59.974Z,5.52
2023-04-16T04:18:29.689Z,5.39
2023-04-16T04:20:59.820Z,5.44
2023-04-16T04:23:31.677Z,5.51
2023-04-16T04:26:03.831Z,5.65
2023-04-16T04:28:33.127Z,5.62
2023-04-16T04:31:02.698Z,5.75
2023-04-16T04:33:32.736Z,5.61
2023-04-16T04:36:02.821Z,5.64
2023-04-16T04:38:31.783Z,5.77
2023-04-16T04:41:00.951Z,5.84
2023-04-16T04:43:33.910Z,5.83
2023-04-16T04:46:02.610Z,5.93
2023-04-16T04:48:32.488Z,5.93
2023-04-16T04:51:05.281Z,5.99
2023-04-16T04:53:34.317Z,6.02
2023-04-16T04:56:12.437Z,6.19
2023-04-16T04:58:42.547Z,6.12
2023-04-16T05:01:11.318Z,6.24
2023-04-16T05:03:40.114Z,6.33
2023-04-16T05:06:10.147Z,6.36
2023-04-16T05:08:38.796Z,6.44
2023-04-16T05:11:07.455Z,6.44
2023-04-16T05:13:36.183Z,6.74
2023-04-16T05:16:04.928Z,6.71
2023-04-16T05:18:33.524Z,6.77
2023-04-16T05:21:02.197Z,6.96
2023-04-16T05:23:32.366Z,6.92
2023-04-16T05:26:00.919Z,6.97
2023-04-16T05:28:29.694Z,7.11
2023-04-16T05:30:58.329Z,7.18
2023-04-16T05:33:26.967Z,7.19
2023-04-16T05:35:55.850Z,7.27
2023-04-16T05:38:24.505Z,7.47
2023-04-16T05:40:54.580Z,7.63
2023-04-16T05:43:23.154Z,7.64
2023-04-16T05:45:51.912Z,7.78
2023-04-16T05:48:21.155Z,7.87
2023-04-16T05:50:51.422Z,7.91
2023-04-16T05:53:20.254Z,7.96
2023-04-16T05:55:49.047Z,8.02
2023-04-16T05:58:19.145Z,8.08
2023-04-16T06:00:47.862Z,8.11
2023-04-16T06:03:16.697Z,8.13
2023-04-16T06:05:46.128Z,8.24
2023-04-16T06:08:14.799Z,8.33
2023-04-16T06:10:43.508Z,8.41
2023-04-16T06:13:12.164Z,8.49
2023-04-16T06:15:42.202Z,8.52
2023-04-16T06:18:10.974Z,8.57
2023-04-16T06:20:39.713Z,8.47
2023-04-16T06:23:08.402Z,8.66
2023-04-16T06:25:37.144Z,8.71
2023-04-16T06:28:06.154Z,8.78
2023-04-16T06:30:35.357Z,8.79
2023-04-16T06:33:05.917Z,8.91
2023-04-16T06:35:34.573Z,8.99
2023-04-16T06:38:03.247Z,9.04
2023-04-16T06:40:31.944Z,9.11
2023-04-16T06:43:01.246Z,9.17
2023-04-16T06:45:30.061Z,9.28
2023-04-16T06:48:01.900Z,9.27
2023-04-16T06:50:33.562Z,9.38
2023-04-16T06:53:14.719Z,9.44
2023-04-16T06:55:44.949Z,9.52
2023-04-16T06:58:20.010Z,9.62
2023-04-16T07:00:54.310Z,9.69
2023-04-16T07:03:52.008Z,9.89
2023-04-16T07:06:33.359Z,9.87
2023-04-16T07:09:04.365Z,9.98
2023-04-16T07:11:34.354Z,9.96
2023-04-16T07:14:07.509Z,9.98
2023-04-16T07:16:37.811Z,10.01
2023-04-16T07:19:27.481Z,9.89
2023-04-16T07:21:59.094Z,9.91
2023-04-16T07:24:31.658Z,9.84
2023-04-16T07:27:04.714Z,9.95
2023-04-16T07:29:35.905Z,10.01
2023-04-16T07:32:05.491Z,10.10
2023-04-16T07:34:38.300Z,10.18
2023-04-16T07:37:11.104Z,10.24
2023-04-16T07:39:42.803Z,10.24
2023-04-16T07:42:11.443Z,10.27
2023-04-16T07:44:41.210Z,10.34
2023-04-16T07:47:09.778Z,10.32
2023-04-16T07:49:38.436Z,10.27
2023-04-16T07:52:08.400Z,10.36
2023-04-16T07:54:37.008Z,10.42
2023-04-16T07:57:05.902Z,10.51
2023-04-16T07:59:34.604Z,10.42
2023-04-16T08:02:03.401Z,10.45
2023-04-16T08:04:32.226Z,10.38
2023-04-16T08:07:00.896Z,10.41
2023-04-16T08:09:30.979Z,10.53
2023-04-16T08:12:01.178Z,10.50
2023-04-16T08:14:29.893Z,10.52
2023-04-16T08:16:58.460Z,10.71
2023-04-16T08:19:27.066Z,10.78
2023-04-16T08:21:57.792Z,10.77
2023-04-16T08:24:26.647Z,10.69
2023-04-16T08:27:02.431Z,10.71
2023-04-16T08:29:40.153Z,10.69
2023-04-16T08:32:10.210Z,10.72
2023-04-16T08:34:39.041Z,10.69
2023-04-16T08:37:07.671Z,10.83
2023-04-16T08:39:36.468Z,11.11
2023-04-16T08:42:13.253Z,11.20
2023-04-16T08:44:49.578Z,11.51
2023-04-16T08:47:18.936Z,11.55
2023-04-16T08:49:47.876Z,11.61
2023-04-16T08:52:21.331Z,11.69
2023-04-16T08:54:59.919Z,11.82
2023-04-16T08:57:39.991Z,11.97
2023-04-16T09:00:11.031Z,12.14
2023-04-16T09:02:40.641Z,12.37
2023-04-16T09:05:13.800Z,12.38
2023-04-16T09:07:44.123Z,12.59
2023-04-16T09:10:17.237Z,12.68
2023-04-16T09:12:47.375Z,12.68
2023-04-16T09:15:16.018Z,12.79
2023-04-16T09:17:44.551Z,12.88
2023-04-16T09:20:13.884Z,12.87
2023-04-16T09:22:42.687Z,12.92
2023-04-16T09:25:12.612Z,13.03
2023-04-16T09:27:41.708Z,13.20
2023-04-16T09:30:26.228Z,13.36
2023-04-16T09:33:18.074Z,13.36
2023-04-16T09:35:56.516Z,13.35
2023-04-16T09:38:58.339Z,13.38
2023-04-16T09:41:30.055Z,13.30
2023-04-16T09:44:00.600Z,13.45
2023-04-16T09:46:35.255Z,13.49
2023-04-16T09:49:10.701Z,13.56
2023-04-16T09:51:42.013Z,13.53
2023-04-16T09:54:11.287Z,13.61
2023-04-16T09:56:43.749Z,13.69
2023-04-16T09:59:19.282Z,13.75
2023-04-16T10:01:50.580Z,13.92
2023-04-16T10:04:19.460Z,13.87
2023-04-16T10:07:05.551Z,14.00
2023-04-16T10:09:38.540Z,13.94
2023-04-16T10:12:08.029Z,13.98
2023-04-16T10:14:37.184Z,14.07
2023-04-16T10:17:07.866Z,14.08
2023-04-16T10:19:37.341Z,14.21
2023-04-16T10:22:06.734Z,14.30
2023-04-16T10:24:36.801Z,14.36
2023-04-16T10:27:05.556Z,14.43
2023-04-16T10:29:35.297Z,14.48
2023-04-16T10:32:07.341Z,14.64
2023-04-16T10:34:37.307Z,14.75
2023-04-16T10:37:05.895Z,14.77
2023-04-16T10:39:38.532Z,14.81
2023-04-16T10:42:12.921Z,14.88
2023-04-16T10:44:45.284Z,14.96
2023-04-16T10:47:19.021Z,14.95
2023-04-16T10:49:49.556Z,15.11
2023-04-16T10:52:18.612Z,15.07
2023-04-16T10:54:49.056Z,15.05
2023-04-16T10:57:19.393Z,14.97
2023-04-16T10:59:51.984Z,14.92
2023-04-16T11:02:31.250Z,14.76
2023-04-16T11:05:00.228Z,14.74
2023-04-16T11:07:36.090Z,14.77
2023-04-16T11:10:07.876Z,14.92
2023-04-16T11:12:38.773Z,15.02
2023-04-16T11:15:10.479Z,15.18
2023-04-16T11:17:42.721Z,15.16
2023-04-16T11:20:20.519Z,15.02
2023-04-16T11:22:50.470Z,15.09
2023-04-16T11:25:22.961Z,15.04
2023-04-16T11:27:52.672Z,15.01
2023-04-16T11:30:30.564Z,15.00
2023-04-16T11:33:00.910Z,15.04
2023-04-16T11:35:29.581Z,15.06
2023-04-16T11:37:59.124Z,15.18
2023-04-16T11:40:31.860Z,15.30
2023-04-16T11:43:04.376Z,15.42
2023-04-16T11:45:33.032Z,15.41
2023-04-16T11:48:03.091Z,15.48
2023-04-16T11:50:31.832Z,15.49
2023-04-16T11:53:07.091Z,15.46
2023-04-16T11:55:46.017Z,15.52
2023-04-16T11:58:16.516Z,15.50
2023-04-16T12:00:45.995Z,15.51
2023-04-16T12:03:16.494Z,15.50
2023-04-16T12:05:45.266Z,15.66
2023-04-16T12:08:14.199Z,15.80
2023-04-16T12:10:56.097Z,15.94
2023-04-16T12:13:24.720Z,15.79
2023-04-16T12:15:55.048Z,15.81
2023-04-16T12:18:27.367Z,15.85
2023-04-16T12:20:56.123Z,15.99
2023-04-16T12:23:27.058Z,16.05
2023-04-16T12:25:56.348Z,16.16
2023-04-16T12:28:33.718Z,16.21
2023-04-16T12:31:03.458Z,16.09
2023-04-16T12:33:33.669Z,16.07
2023-04-16T12:36:04.734Z,16.05
2023-04-16T12:38:33.351Z,15.87
2023-04-16T12:41:02.498Z,15.89
2023-04-16T12:43:31.321Z,15.70
2023-04-16T12:46:00.789Z,15.64
2023-04-16T12:48:38.676Z,15.67
2023-04-16T12:51:10.303Z,15.67
2023-04-16T12:53:38.961Z,15.51
2023-04-16T12:56:07.983Z,15.59
2023-04-16T12:58:36.785Z,15.53
2023-04-16T13:01:05.373Z,15.50
2023-04-16T13:03:37.330Z,15.51
2023-04-16T13:06:06.635Z,15.58
2023-04-16T13:08:35.426Z,15.70
2023-04-16T13:11:04.575Z,15.68
2023-04-16T13:13:33.179Z,15.66
2023-04-16T13:16:04.182Z,15.65
2023-04-16T13:18:34.236Z,15.62
2023-04-16T13:21:03.131Z,15.55
2023-04-16T13:23:31.968Z,15.52
2023-04-16T13:26:00.733Z,15.55
2023-04-16T13:28:29.398Z,15.49
2023-04-16T13:30:59.045Z,15.60
2023-04-16T13:33:28.262Z,15.60
2023-04-16T13:35:58.363Z,15.66
2023-04-16T13:38:28.331Z,15.70
2023-04-16T13:40:57.555Z,15.67
2023-04-16T13:43:28.467Z,15.44
2023-04-16T13:45:58.340Z,15.41
2023-04-16T13:48:30.195Z,15.36
2023-04-16T13:51:16.602Z,15.36
2023-04-16T13:53:45.998Z,15.39
2023-04-16T13:56:14.612Z,15.42
2023-04-16T13:58:43.534Z,15.36
2023-04-16T14:01:13.044Z,15.24
2023-04-16T14:03:42.102Z,15.18
2023-04-16T14:06:12.857Z,15.15
2023-04-16T14:08:41.626Z,15.14
2023-04-16T14:11:10.346Z,15.02
2023-04-16T14:13:38.986Z,15.11
2023-04-16T14:16:07.918Z,15.01
2023-04-16T14:18:41.102Z,14.90
2023-04-16T14:21:11.156Z,14.88
2023-04-16T14:23:39.813Z,14.92
2023-04-16T14:26:08.493Z,14.85
2023-04-16T14:28:37.281Z,14.92
2023-04-16T14:31:05.890Z,14.85
2023-04-16T14:33:34.582Z,14.72
2023-04-16T14:36:03.531Z,14.67
2023-04-16T14:38:33.690Z,14.58
2023-04-16T14:41:02.389Z,14.44
2023-04-16T14:43:31.078Z,14.32
2023-04-16T14:46:00.035Z,14.28
2023-04-16T14:48:28.784Z,14.34
2023-04-16T14:51:00.355Z,14.31
2023-04-16T14:53:29.872Z,14.19
2023-04-16T14:55:59.896Z,14.25
2023-04-16T14:58:28.736Z,14.32
2023-04-16T15:00:57.515Z,14.25
2023-04-16T15:03:26.517Z,14.27
2023-04-16T15:05:59.337Z,14.26
2023-04-16T15:08:31.836Z,14.32
2023-04-16T15:11:03.745Z,14.26
2023-04-16T15:13:34.738Z,14.18
2023-04-16T15:16:07.093Z,14.20
2023-04-16T15:18:38.189Z,14.20
2023-04-16T15:21:12.729Z,14.18
2023-04-16T15:24:04.397Z,14.06
2023-04-16T15:26:43.523Z,14.08
2023-04-16T15:29:14.993Z,13.97
2023-04-16T15:31:43.766Z,13.95
2023-04-16T15:34:12.481Z,13.93
2023-04-16T15:36:41.166Z,13.90
2023-04-16T15:39:10.334Z,13.90
2023-04-16T15:41:53.333Z,13.90
2023-04-16T15:44:40.773Z,13.85
2023-04-16T15:47:09.712Z,13.76
2023-04-16T15:49:40.417Z,13.77
2023-04-16T15:52:09.735Z,13.72
2023-04-16T15:54:40.234Z,13.69
2023-04-16T15:57:09.034Z,13.65
2023-04-16T15:59:39.251Z,13.59
2023-04-16T16:02:15.724Z,13.56
2023-04-16T16:04:46.346Z,13.57
2023-04-16T16:07:15.851Z,13.53
2023-04-16T16:09:44.655Z,13.49
2023-04-16T16:12:19.041Z,13.39
2023-04-16T16:14:49.519Z,13.38
2023-04-16T16:17:19.190Z,13.27
2023-04-16T16:19:48.091Z,13.25
2023-04-16T16:22:20.532Z,13.16
2023-04-16T16:24:51.043Z,13.11
2023-04-16T16:27:19.860Z,13.09
2023-04-16T16:29:49.917Z,13.05
2023-04-16T16:32:18.680Z,13.06
2023-04-16T16:34:47.313Z,12.97
2023-04-16T16:37:16.390Z,12.92
2023-04-16T16:39:44.980Z,12.90
2023-04-16T16:42:14.186Z,12.84
2023-04-16T16:44:42.742Z,12.79
2023-04-16T16:47:12.723Z,12.81
2023-04-16T16:49:41.331Z,12.79
2023-04-16T16:52:09.911Z,12.78
2023-04-16T16:54:38.573Z,12.72
2023-04-16T16:57:07.183Z,12.67
2023-04-16T16:59:35.847Z,12.58
2023-04-16T17:02:04.511Z,12.52
2023-04-16T17:04:36.822Z,12.47
2023-04-16T17:07:06.399Z,12.39
2023-04-16T17:09:35.123Z,12.35
2023-04-16T17:12:03.830Z,12.29
2023-04-16T17:14:33.118Z,12.27
2023-04-16T17:17:01.845Z,12.24
2023-04-16T17:19:30.519Z,12.18
2023-04-16T17:22:00.948Z,12.13
2023-04-16T17:24:29.673Z,12.12
2023-04-16T17:26:58.562Z,12.08
2023-04-16T17:29:28.346Z,12.08
2023-04-16T17:31:57.281Z,12.03
2023-04-16T17:34:33.805Z,11.97
2023-04-16T17:37:04.972Z,11.90
2023-04-16T17:39:33.689Z,11.75
2023-04-16T17:42:04.027Z,11.74
2023-04-16T17:44:32.778Z,11.70
2023-04-16T17:47:02.235Z,11.63
2023-04-16T17:49:31.543Z,11.62
2023-04-16T17:52:00.222Z,11.55
2023-04-16T17:54:30.266Z,11.51
2023-04-16T17:56:58.905Z,11.37
2023-04-16T17:59:27.557Z,11.24
2023-04-16T18:01:56.737Z,11.20
2023-04-16T18:04:25.663Z,11.02
2023-04-16T18:06:54.430Z,11.00
2023-04-16T18:09:23.148Z,10.80
2023-04-16T18:11:53.167Z,10.71
2023-04-16T18:14:21.760Z,10.59
2023-04-16T18:16:50.872Z,10.53
2023-04-16T18:19:19.508Z,10.44
2023-04-16T18:21:48.363Z,10.37
2023-04-16T18:24:16.930Z,10.24
2023-04-16T18:26:46.991Z,10.19
2023-04-16T18:29:18.152Z,10.13
2023-04-16T18:31:47.422Z,10.04
2023-04-16T18:34:16.115Z,9.96
2023-04-16T18:36:44.711Z,9.89
2023-04-16T18:39:13.376Z,9.80
2023-04-16T18:41:44.700Z,9.73
2023-04-16T18:44:13.362Z,9.68
2023-04-16T18:46:43.623Z,9.70
2023-04-16T18:49:12.870Z,9.63
2023-04-16T18:51:42.368Z,9.47
2023-04-16T18:54:11.041Z,9.38
2023-04-16T18:56:39.788Z,9.32
2023-04-16T18:59:08.563Z,9.27
2023-04-16T19:01:37.313Z,9.19
2023-04-16T19:04:07.657Z,9.18
2023-04-16T19:06:37.214Z,9.12
2023-04-16T19:09:06.208Z,9.08
2023-04-16T19:11:34.879Z,9.03
2023-04-16T19:14:05.419Z,8.96
2023-04-16T19:16:34.076Z,8.89
2023-04-16T19:19:02.710Z,8.85
2023-04-16T19:21:32.733Z,8.77
2023-04-16T19:24:01.418Z,8.75
2023-04-16T19:26:30.163Z,8.75
2023-04-16T19:28:58.854Z,8.67
2023-04-16T19:31:29.669Z,8.61
2023-04-16T19:33:58.395Z,8.66
2023-04-16T19:36:27.275Z,8.64
2023-04-16T19:38:57.218Z,8.59
2023-04-16T19:41:25.953Z,8.55
2023-04-16T19:43:56.109Z,8.60
2023-04-16T19:46:24.843Z,8.53
2023-04-16T19:48:53.478Z,8.54
2023-04-16T19:51:22.130Z,8.57
2023-04-16T19:53:50.870Z,8.57
2023-04-16T19:56:20.911Z,8.58
2023-04-16T19:58:49.639Z,8.52
2023-04-16T20:01:18.348Z,8.61
2023-04-16T20:03:47.101Z,8.66
2023-04-16T20:06:17.488Z,8.55
2023-04-16T20:08:46.253Z,8.49
2023-04-16T20:11:14.869Z,8.38
2023-04-16T20:13:47.472Z,8.31
2023-04-16T20:16:17.446Z,8.24
2023-04-16T20:18:46.269Z,8.16
2023-04-16T20:21:17.418Z,8.07
2023-04-16T20:23:46.690Z,8.02
2023-04-16T20:26:16.721Z,8.00
2023-04-16T20:28:46.895Z,7.96
2023-04-16T20:31:15.640Z,7.92
2023-04-16T20:33:44.254Z,7.93
2023-04-16T20:36:14.721Z,7.82
2023-04-16T20:38:46.140Z,7.86
2023-04-16T20:41:20.369Z,7.79
2023-04-16T20:43:54.911Z,7.83
2023-04-16T20:46:24.367Z,7.74
2023-04-16T20:48:53.453Z,7.61
2023-04-16T20:51:22.113Z,7.71
2023-04-16T20:53:52.193Z,7.73
2023-04-16T20:56:21.006Z,7.68
2023-04-16T20:58:53.181Z,7.70
2023-04-16T21:01:21.829Z,7.60
2023-04-16T21:03:50.637Z,7.67
2023-04-16T21:06:22.532Z,7.59
2023-04-16T21:08:51.238Z,7.62
2023-04-16T21:11:19.949Z,7.45
2023-04-16T21:13:48.500Z,7.43
2023-04-16T21:16:18.630Z,7.50
2023-04-16T21:18:47.320Z,7.44
2023-04-16T21:21:15.954Z,7.43
2023-04-16T21:23:44.612Z,7.52
2023-04-16T21:26:13.224Z,7.54
2023-04-16T21:28:41.881Z,7.46
2023-04-16T21:31:10.540Z,7.51
2023-04-16T21:33:40.637Z,7.60
2023-04-16T21:36:10.182Z,7.65
2023-04-16T21:38:38.892Z,7.66
2023-04-16T21:41:07.567Z,7.68
2023-04-16T21:43:36.236Z,7.77
2023-04-16T21:46:04.868Z,7.77
2023-04-16T21:48:33.509Z,7.64
2023-04-16T21:51:06.701Z,7.63
2023-04-16T21:53:36.944Z,7.57
2023-04-16T21:56:05.818Z,7.51
2023-04-16T21:58:34.370Z,7.36
2023-04-16T22:01:03.062Z,7.33
2023-04-16T22:03:33.557Z,7.24
2023-04-16T22:06:04.259Z,7.26
2023-04-16T22:08:33.275Z,7.21
2023-04-16T22:11:03.804Z,7.18
2023-04-16T22:13:33.359Z,7.18
2023-04-16T22:16:02.532Z,7.12
2023-04-16T22:18:32.957Z,7.05
2023-04-16T22:21:03.810Z,6.94
2023-04-16T22:23:32.645Z,6.89
2023-04-16T22:26:02.767Z,6.93
2023-04-16T22:28:31.500Z,6.89
2023-04-16T22:31:00.124Z,6.77
2023-04-16T22:33:31.715Z,6.77
2023-04-16T22:36:01.352Z,6.59
2023-04-16T22:38:31.425Z,6.47
2023-04-16T22:41:00.072Z,6.40
2023-04-16T22:43:28.806Z,6.45
2023-04-16T22:46:04.871Z,6.45
2023-04-16T22:48:36.326Z,6.49
2023-04-16T22:51:05.570Z,6.44
2023-04-16T22:53:36.824Z,6.58
2023-04-16T22:56:05.714Z,6.46
2023-04-16T22:58:34.329Z,6.41
2023-04-16T23:01:03.225Z,6.28
2023-04-16T23:03:32.235Z,6.22
2023-04-16T23:06:01.079Z,6.25
2023-04-16T23:08:29.699Z,6.27
2023-04-16T23:10:59.796Z,6.23
2023-04-16T23:13:28.350Z,6.27
2023-04-16T23:15:57.083Z,6.21
2023-04-16T23:18:25.885Z,6.21
2023-04-16T23:20:54.989Z,6.08
2023-04-16T23:23:23.597Z,6.14
2023-04-16T23:25:54.426Z,6.09
2023-04-16T23:28:24.473Z,6.03
2023-04-16T23:30:53.840Z,6.14
2023-04-16T23:33:22.756Z,6.04
2023-04-16T23:35:51.454Z,6.14
2023-04-16T23:38:20.139Z,6.10
2023-04-16T23:40:48.723Z,6.15
2023-04-16T23:43:17.372Z,6.11
2023-04-16T23:45:47.404Z,6.00
2023-04-16T23:48:16.060Z,6.02
2023-04-16T23:50:44.675Z,5.91
2023-04-16T23:53:13.271Z,5.91
2023-04-16T23:55:41.946Z,5.81
2023-04-16T23:58:10.628Z,5.80
